Lewistown, MT

1:36 AM MDT on July 26, 2016 (GMT -0600)
3/4 mile S of Lewistown | | Change Station

Elev 4189 ft 47.04 °N, 109.42 °W | Updated 13 seconds ago

Overcast
Overcast
69.7 °F
Feels Like 69.7 °F
N
3.0
Wind Variable Wind from NNE
Gusts 24.0 mph

Today
High -- | Low -- °F
--% Chance of Precip.
Yesterday
High -- | Low -- °F
Precip. -- in
Pressure 30.08 in
Visibility 10.0 miles
Clouds Few 4000 ft
Scattered Clouds 6500 ft
Mostly Cloudy 12000 ft
Dew Point 47 °F
Humidity 44%
Rainfall 0.01 in
Snow Depth Not available.
5:50 AM 8:57 PM
Waning Gibbous, 57% visible
SPECI KLWT 260710Z AUTO 15014G29KT 10SM -RA FEW040 SCT065 BKN120 23/07 A3008 RMK AO2 PK WND 13029/0707 WSHFT 0650 P0000 T02330067
Pressure 30.08 in
Visibility 10.0 miles
Clouds Few 4000 ft
Scattered Clouds 6500 ft
Mostly Cloudy 12000 ft
Dew Point 47 °F
Humidity 44%
Rainfall 0.01 in
Snow Depth Not available.
5:50 AM 8:57 PM
Waning Gibbous, 57% visible
SPECI KLWT 260710Z AUTO 15014G29KT 10SM -RA FEW040 SCT065 BKN120 23/07 A3008 RMK AO2 PK WND 13029/0707 WSHFT 0650 P0000 T02330067

10-Day Weather Forecast

Almanac

Astronomy

Jul. 26, 2016 Rise Set
Actual Time
Civil Twilight
Nautical Twilight
Astronomical Twilight
Moon
Length of Visible Light
Length of Day
Tomorrow will be .
, % of the Moon is Illuminated

Today's Extremes

State Highs State Lows

Community

WunderPhotos

Upload Photos

1,927,552 photos uploaded!

WunderBlog® & News

Nearby

Air Quality

  Air Quality AQ Index Pollutant
Not available.

Snow Depth

Station Depth Elevation

Earthquake Activity

City Distance Mag. Time & Date
Minimum magnitude displayed is 2.5.

Coastal Water Temperatures

Place Temperature

Stations

Nearby Weather Stations

Station Location Temp. Windchill Dew Point Humidity Wind Precip. Elev Updated Type
                   

Watches & Warnings

There are currently no watches in effect.